sensor_id;sensor_type;location;lat;lon;timestamp;temperature;humidity
18191;DHT22;47004;51.366;12.348;2023-03-07T00:00:41;0.70;99.90
18191;DHT22;47004;51.366;12.348;2023-03-07T00:02:42;0.70;99.90
18191;DHT22;47004;51.366;12.348;2023-03-07T00:04:45;0.80;99.90
18191;DHT22;47004;51.366;12.348;2023-03-07T00:06:47;0.80;99.90
18191;DHT22;47004;51.366;12.348;2023-03-07T00:08:49;0.80;99.90
18191;DHT22;47004;51.366;12.348;2023-03-07T00:10:50;0.80;99.90
18191;DHT22;47004;51.366;12.348;2023-03-07T00:12:52;0.80;99.90
18191;DHT22;47004;51.366;12.348;2023-03-07T00:14:54;0.80;99.90
18191;DHT22;47004;51.366;12.348;2023-03-07T00:16:58;0.80;99.90
18191;DHT22;47004;51.366;12.348;2023-03-07T00:19:00;1.10;99.90
18191;DHT22;47004;51.366;12.348;2023-03-07T00:21:03;0.80;99.90
18191;DHT22;47004;51.366;12.348;2023-03-07T00:23:05;0.80;99.90
18191;DHT22;47004;51.366;12.348;2023-03-07T00:25:09;0.90;99.90
18191;DHT22;47004;51.366;12.348;2023-03-07T00:27:11;0.90;99.90
18191;DHT22;47004;51.366;12.348;2023-03-07T00:29:13;0.90;99.90
18191;DHT22;47004;51.366;12.348;2023-03-07T00:31:16;0.90;99.90
18191;DHT22;47004;51.366;12.348;2023-03-07T00:33:19;0.90;99.90
18191;DHT22;47004;51.366;12.348;2023-03-07T00:35:21;0.90;99.90
18191;DHT22;47004;51.366;12.348;2023-03-07T00:37:23;0.90;99.90
18191;DHT22;47004;51.366;12.348;2023-03-07T00:39:25;0.90;99.90
18191;DHT22;47004;51.366;12.348;2023-03-07T00:41:30;0.90;99.90
18191;DHT22;47004;51.366;12.348;2023-03-07T00:43:32;0.90;99.90
18191;DHT22;47004;51.366;12.348;2023-03-07T00:45:34;0.90;99.90
18191;DHT22;47004;51.366;12.348;2023-03-07T00:47:36;0.90;99.90
18191;DHT22;47004;51.366;12.348;2023-03-07T00:49:39;0.90;99.90
18191;DHT22;47004;51.366;12.348;2023-03-07T00:51:41;0.90;99.90
18191;DHT22;47004;51.366;12.348;2023-03-07T00:53:44;0.90;99.90
18191;DHT22;47004;51.366;12.348;2023-03-07T00:55:53;0.90;99.90
18191;DHT22;47004;51.366;12.348;2023-03-07T00:57:55;0.90;99.90
18191;DHT22;47004;51.366;12.348;2023-03-07T00:59:57;1.00;99.90
18191;DHT22;47004;51.366;12.348;2023-03-07T01:01:59;0.60;99.90
18191;DHT22;47004;51.366;12.348;2023-03-07T01:04:01;0.90;99.90
18191;DHT22;47004;51.366;12.348;2023-03-07T01:06:08;0.90;99.90
18191;DHT22;47004;51.366;12.348;2023-03-07T01:08:10;0.90;99.90
18191;DHT22;47004;51.366;12.348;2023-03-07T01:10:12;0.90;99.90
18191;DHT22;47004;51.366;12.348;2023-03-07T01:12:14;0.90;99.90
18191;DHT22;47004;51.366;12.348;2023-03-07T01:14:16;0.90;99.90
18191;DHT22;47004;51.366;12.348;2023-03-07T01:16:20;1.00;99.90
18191;DHT22;47004;51.366;12.348;2023-03-07T01:18:22;0.90;99.90
18191;DHT22;47004;51.366;12.348;2023-03-07T01:20:24;0.90;99.90
18191;DHT22;47004;51.366;12.348;2023-03-07T01:22:27;0.90;99.90
18191;DHT22;47004;51.366;12.348;2023-03-07T01:24:29;0.90;99.90
18191;DHT22;47004;51.366;12.348;2023-03-07T01:26:31;1.00;99.90
18191;DHT22;47004;51.366;12.348;2023-03-07T01:28:33;1.00;99.90
18191;DHT22;47004;51.366;12.348;2023-03-07T01:30:35;1.00;99.90
18191;DHT22;47004;51.366;12.348;2023-03-07T01:32:37;1.00;99.90
18191;DHT22;47004;51.366;12.348;2023-03-07T01:34:38;1.00;99.90
18191;DHT22;47004;51.366;12.348;2023-03-07T01:36:40;1.00;99.90
18191;DHT22;47004;51.366;12.348;2023-03-07T01:38:44;1.00;99.90
18191;DHT22;47004;51.366;12.348;2023-03-07T01:40:46;1.00;99.90
18191;DHT22;47004;51.366;12.348;2023-03-07T01:42:50;1.10;99.90
18191;DHT22;47004;51.366;12.348;2023-03-07T01:45:02;1.00;99.90
18191;DHT22;47004;51.366;12.348;2023-03-07T01:47:04;1.00;99.90
18191;DHT22;47004;51.366;12.348;2023-03-07T01:49:10;1.10;99.90
18191;DHT22;47004;51.366;12.348;2023-03-07T01:51:13;1.10;99.90
18191;DHT22;47004;51.366;12.348;2023-03-07T01:53:15;1.10;99.90
18191;DHT22;47004;51.366;12.348;2023-03-07T01:55:21;1.10;99.90
18191;DHT22;47004;51.366;12.348;2023-03-07T01:57:27;1.20;99.90
18191;DHT22;47004;51.366;12.348;2023-03-07T01:59:33;1.10;99.90
18191;DHT22;47004;51.366;12.348;2023-03-07T02:01:37;1.20;99.90
18191;DHT22;47004;51.366;12.348;2023-03-07T02:03:44;1.20;99.90
18191;DHT22;47004;51.366;12.348;2023-03-07T02:05:49;1.20;99.90
18191;DHT22;47004;51.366;12.348;2023-03-07T02:07:53;1.20;99.90
18191;DHT22;47004;51.366;12.348;2023-03-07T02:09:57;1.20;99.90
18191;DHT22;47004;51.366;12.348;2023-03-07T02:12:00;1.20;99.90
18191;DHT22;47004;51.366;12.348;2023-03-07T02:14:03;1.30;99.90
18191;DHT22;47004;51.366;12.348;2023-03-07T02:16:05;1.30;99.90
18191;DHT22;47004;51.366;12.348;2023-03-07T02:18:08;1.20;99.90
18191;DHT22;47004;51.366;12.348;2023-03-07T02:20:24;1.30;99.90
18191;DHT22;47004;51.366;12.348;2023-03-07T02:22:28;1.30;99.90
18191;DHT22;47004;51.366;12.348;2023-03-07T02:24:35;1.30;99.90
18191;DHT22;47004;51.366;12.348;2023-03-07T02:26:43;1.30;99.90
18191;DHT22;47004;51.366;12.348;2023-03-07T02:28:46;1.30;99.90
18191;DHT22;47004;51.366;12.348;2023-03-07T02:30:53;1.30;99.90
18191;DHT22;47004;51.366;12.348;2023-03-07T02:32:55;1.40;99.90
18191;DHT22;47004;51.366;12.348;2023-03-07T02:34:57;1.40;99.90
18191;DHT22;47004;51.366;12.348;2023-03-07T02:37:02;1.40;99.90
18191;DHT22;47004;51.366;12.348;2023-03-07T02:39:05;1.40;99.90
18191;DHT22;47004;51.366;12.348;2023-03-07T02:41:10;1.40;99.90
18191;DHT22;47004;51.366;12.348;2023-03-07T02:43:15;1.40;99.90
18191;DHT22;47004;51.366;12.348;2023-03-07T02:45:18;1.40;99.90
18191;DHT22;47004;51.366;12.348;2023-03-07T02:47:20;1.40;99.90
18191;DHT22;47004;51.366;12.348;2023-03-07T02:49:22;1.40;99.90
18191;DHT22;47004;51.366;12.348;2023-03-07T02:51:24;1.40;99.90
18191;DHT22;47004;51.366;12.348;2023-03-07T02:53:26;1.40;99.90
18191;DHT22;47004;51.366;12.348;2023-03-07T02:55:28;1.40;99.90
18191;DHT22;47004;51.366;12.348;2023-03-07T02:57:30;1.40;99.90
18191;DHT22;47004;51.366;12.348;2023-03-07T02:59:33;1.50;99.90
18191;DHT22;47004;51.366;12.348;2023-03-07T03:01:37;1.40;99.90
18191;DHT22;47004;51.366;12.348;2023-03-07T03:03:39;1.50;99.90
18191;DHT22;47004;51.366;12.348;2023-03-07T03:05:41;1.50;99.90
18191;DHT22;47004;51.366;12.348;2023-03-07T03:07:43;1.50;99.90
18191;DHT22;47004;51.366;12.348;2023-03-07T03:09:45;1.50;99.90
18191;DHT22;47004;51.366;12.348;2023-03-07T03:11:46;1.50;99.90
18191;DHT22;47004;51.366;12.348;2023-03-07T03:13:48;1.50;99.90
18191;DHT22;47004;51.366;12.348;2023-03-07T03:15:55;1.50;99.90
18191;DHT22;47004;51.366;12.348;2023-03-07T03:17:57;1.50;99.90
18191;DHT22;47004;51.366;12.348;2023-03-07T03:19:59;1.60;99.90
18191;DHT22;47004;51.366;12.348;2023-03-07T03:22:02;1.60;99.90
18191;DHT22;47004;51.366;12.348;2023-03-07T03:24:05;1.50;99.90
18191;DHT22;47004;51.366;12.348;2023-03-07T03:26:09;1.50;99.90
18191;DHT22;47004;51.366;12.348;2023-03-07T03:28:11;1.50;99.90
18191;DHT22;47004;51.366;12.348;2023-03-07T03:30:14;1.60;99.90
18191;DHT22;47004;51.366;12.348;2023-03-07T03:32:17;1.60;99.90
18191;DHT22;47004;51.366;12.348;2023-03-07T03:34:19;1.60;99.90
18191;DHT22;47004;51.366;12.348;2023-03-07T03:36:21;1.60;99.90
18191;DHT22;47004;51.366;12.348;2023-03-07T03:38:25;1.60;99.90
18191;DHT22;47004;51.366;12.348;2023-03-07T03:40:27;1.60;99.90
18191;DHT22;47004;51.366;12.348;2023-03-07T03:42:29;1.70;99.90
18191;DHT22;47004;51.366;12.348;2023-03-07T03:44:31;1.60;99.90
18191;DHT22;47004;51.366;12.348;2023-03-07T03:46:33;1.70;99.90
18191;DHT22;47004;51.366;12.348;2023-03-07T03:48:36;1.60;99.90
18191;DHT22;47004;51.366;12.348;2023-03-07T03:50:38;1.70;99.90
18191;DHT22;47004;51.366;12.348;2023-03-07T03:52:40;1.70;99.90
18191;DHT22;47004;51.366;12.348;2023-03-07T03:54:44;1.70;99.90
18191;DHT22;47004;51.366;12.348;2023-03-07T03:56:46;1.70;99.90
18191;DHT22;47004;51.366;12.348;2023-03-07T03:58:50;1.70;99.90
18191;DHT22;47004;51.366;12.348;2023-03-07T04:00:52;1.70;99.90
18191;DHT22;47004;51.366;12.348;2023-03-07T04:02:54;1.70;99.90
18191;DHT22;47004;51.366;12.348;2023-03-07T04:04:57;1.70;99.90
18191;DHT22;47004;51.366;12.348;2023-03-07T04:06:59;1.70;99.90
18191;DHT22;47004;51.366;12.348;2023-03-07T04:09:01;1.70;99.90
18191;DHT22;47004;51.366;12.348;2023-03-07T04:11:04;1.70;99.90
18191;DHT22;47004;51.366;12.348;2023-03-07T04:13:06;1.70;99.90
18191;DHT22;47004;51.366;12.348;2023-03-07T04:15:09;1.70;99.90
18191;DHT22;47004;51.366;12.348;2023-03-07T04:17:12;1.70;99.90
18191;DHT22;47004;51.366;12.348;2023-03-07T04:19:14;1.70;99.90
18191;DHT22;47004;51.366;12.348;2023-03-07T04:21:17;1.70;99.90
18191;DHT22;47004;51.366;12.348;2023-03-07T04:23:20;1.70;99.90
18191;DHT22;47004;51.366;12.348;2023-03-07T04:25:22;1.70;99.90
18191;DHT22;47004;51.366;12.348;2023-03-07T04:27:24;1.70;99.90
18191;DHT22;47004;51.366;12.348;2023-03-07T04:29:26;1.70;99.90
18191;DHT22;47004;51.366;12.348;2023-03-07T04:31:30;1.70;99.90
18191;DHT22;47004;51.366;12.348;2023-03-07T04:33:32;1.70;99.90
18191;DHT22;47004;51.366;12.348;2023-03-07T04:35:34;1.70;99.90
18191;DHT22;47004;51.366;12.348;2023-03-07T04:37:37;1.80;99.90
18191;DHT22;47004;51.366;12.348;2023-03-07T04:39:39;1.80;99.90
18191;DHT22;47004;51.366;12.348;2023-03-07T04:41:41;1.80;99.90
18191;DHT22;47004;51.366;12.348;2023-03-07T04:43:43;1.80;99.90
18191;DHT22;47004;51.366;12.348;2023-03-07T04:45:44;1.90;99.90
18191;DHT22;47004;51.366;12.348;2023-03-07T04:47:46;1.90;99.90
18191;DHT22;47004;51.366;12.348;2023-03-07T04:49:48;1.90;99.90
18191;DHT22;47004;51.366;12.348;2023-03-07T04:51:50;1.90;99.90
18191;DHT22;47004;51.366;12.348;2023-03-07T04:53:53;1.90;99.90
18191;DHT22;47004;51.366;12.348;2023-03-07T04:55:57;1.90;99.90
18191;DHT22;47004;51.366;12.348;2023-03-07T04:57:59;1.90;99.90
18191;DHT22;47004;51.366;12.348;2023-03-07T05:00:02;1.90;99.90
18191;DHT22;47004;51.366;12.348;2023-03-07T05:02:05;1.90;99.90
18191;DHT22;47004;51.366;12.348;2023-03-07T05:04:07;1.90;99.90
18191;DHT22;47004;51.366;12.348;2023-03-07T05:06:12;1.90;99.90
18191;DHT22;47004;51.366;12.348;2023-03-07T05:08:15;1.90;99.90
18191;DHT22;47004;51.366;12.348;2023-03-07T05:10:18;1.90;99.90
18191;DHT22;47004;51.366;12.348;2023-03-07T05:12:20;1.90;99.90
18191;DHT22;47004;51.366;12.348;2023-03-07T05:14:22;1.90;99.90
18191;DHT22;47004;51.366;12.348;2023-03-07T05:16:24;1.90;99.90
18191;DHT22;47004;51.366;12.348;2023-03-07T05:18:26;1.90;99.90
18191;DHT22;47004;51.366;12.348;2023-03-07T05:20:28;1.90;99.90
18191;DHT22;47004;51.366;12.348;2023-03-07T05:22:30;1.90;99.90
18191;DHT22;47004;51.366;12.348;2023-03-07T05:24:32;1.90;99.90
18191;DHT22;47004;51.366;12.348;2023-03-07T05:26:36;1.90;99.90
18191;DHT22;47004;51.366;12.348;2023-03-07T05:28:38;2.00;99.90
18191;DHT22;47004;51.366;12.348;2023-03-07T05:30:39;2.00;99.90
18191;DHT22;47004;51.366;12.348;2023-03-07T05:32:41;2.00;99.90
18191;DHT22;47004;51.366;12.348;2023-03-07T05:34:43;2.00;99.90
18191;DHT22;47004;51.366;12.348;2023-03-07T05:36:46;2.10;99.90
18191;DHT22;47004;51.366;12.348;2023-03-07T05:38:49;2.00;99.90
18191;DHT22;47004;51.366;12.348;2023-03-07T05:40:53;2.10;99.90
18191;DHT22;47004;51.366;12.348;2023-03-07T05:42:56;2.10;99.90
18191;DHT22;47004;51.366;12.348;2023-03-07T05:44:58;2.10;99.90
18191;DHT22;47004;51.366;12.348;2023-03-07T05:47:00;2.10;99.90
18191;DHT22;47004;51.366;12.348;2023-03-07T05:49:02;2.10;99.90
18191;DHT22;47004;51.366;12.348;2023-03-07T05:51:04;2.10;99.90
18191;DHT22;47004;51.366;12.348;2023-03-07T05:53:08;2.10;99.90
18191;DHT22;47004;51.366;12.348;2023-03-07T05:55:10;2.20;99.90
18191;DHT22;47004;51.366;12.348;2023-03-07T05:57:12;2.20;99.90
18191;DHT22;47004;51.366;12.348;2023-03-07T05:59:15;2.20;99.90
18191;DHT22;47004;51.366;12.348;2023-03-07T06:01:17;2.30;99.90
18191;DHT22;47004;51.366;12.348;2023-03-07T06:03:19;2.30;99.90
18191;DHT22;47004;51.366;12.348;2023-03-07T06:05:21;2.30;99.90
18191;DHT22;47004;51.366;12.348;2023-03-07T06:07:23;2.30;99.90
18191;DHT22;47004;51.366;12.348;2023-03-07T06:09:26;2.30;99.90
18191;DHT22;47004;51.366;12.348;2023-03-07T06:11:28;2.30;99.90
18191;DHT22;47004;51.366;12.348;2023-03-07T06:13:30;2.40;99.90
18191;DHT22;47004;51.366;12.348;2023-03-07T06:15:33;2.40;99.90
18191;DHT22;47004;51.366;12.348;2023-03-07T06:17:35;2.50;99.90
18191;DHT22;47004;51.366;12.348;2023-03-07T06:19:37;2.50;99.90
18191;DHT22;47004;51.366;12.348;2023-03-07T06:21:39;2.50;99.90
18191;DHT22;47004;51.366;12.348;2023-03-07T06:23:43;2.70;99.90
18191;DHT22;47004;51.366;12.348;2023-03-07T06:25:45;2.60;99.90
18191;DHT22;47004;51.366;12.348;2023-03-07T06:27:47;2.60;99.90
18191;DHT22;47004;51.366;12.348;2023-03-07T06:29:49;2.60;99.90
18191;DHT22;47004;51.366;12.348;2023-03-07T06:31:52;2.60;99.90
18191;DHT22;47004;51.366;12.348;2023-03-07T06:33:54;2.70;99.90
18191;DHT22;47004;51.366;12.348;2023-03-07T06:35:56;2.70;99.90
18191;DHT22;47004;51.366;12.348;2023-03-07T06:37:58;2.70;99.90
18191;DHT22;47004;51.366;12.348;2023-03-07T06:40:00;2.70;99.90
18191;DHT22;47004;51.366;12.348;2023-03-07T06:42:06;2.70;99.90
18191;DHT22;47004;51.366;12.348;2023-03-07T06:44:08;2.70;99.90
18191;DHT22;47004;51.366;12.348;2023-03-07T06:46:10;2.90;99.90
18191;DHT22;47004;51.366;12.348;2023-03-07T06:48:13;2.70;99.90
18191;DHT22;47004;51.366;12.348;2023-03-07T06:50:17;2.80;99.90
18191;DHT22;47004;51.366;12.348;2023-03-07T06:52:19;2.80;99.90
18191;DHT22;47004;51.366;12.348;2023-03-07T06:54:21;2.80;99.90
18191;DHT22;47004;51.366;12.348;2023-03-07T06:56:24;2.90;99.90
18191;DHT22;47004;51.366;12.348;2023-03-07T06:58:26;2.90;99.90
18191;DHT22;47004;51.366;12.348;2023-03-07T07:00:31;2.90;99.90
18191;DHT22;47004;51.366;12.348;2023-03-07T07:02:33;2.90;99.90
18191;DHT22;47004;51.366;12.348;2023-03-07T07:04:36;2.90;99.90
18191;DHT22;47004;51.366;12.348;2023-03-07T07:06:38;2.90;99.90
18191;DHT22;47004;51.366;12.348;2023-03-07T07:08:40;2.90;99.90
18191;DHT22;47004;51.366;12.348;2023-03-07T07:10:42;3.00;99.90
18191;DHT22;47004;51.366;12.348;2023-03-07T07:12:44;3.00;99.90
18191;DHT22;47004;51.366;12.348;2023-03-07T07:14:46;3.00;99.90
18191;DHT22;47004;51.366;12.348;2023-03-07T07:16:48;3.00;99.90
18191;DHT22;47004;51.366;12.348;2023-03-07T07:18:50;3.10;99.90
18191;DHT22;47004;51.366;12.348;2023-03-07T07:20:54;3.10;99.90
18191;DHT22;47004;51.366;12.348;2023-03-07T07:22:58;3.10;99.90
18191;DHT22;47004;51.366;12.348;2023-03-07T07:25:00;3.10;99.90
18191;DHT22;47004;51.366;12.348;2023-03-07T07:27:02;3.10;99.90
18191;DHT22;47004;51.366;12.348;2023-03-07T07:29:05;3.20;99.90
18191;DHT22;47004;51.366;12.348;2023-03-07T07:31:07;3.20;99.90
18191;DHT22;47004;51.366;12.348;2023-03-07T07:33:09;3.20;99.90
18191;DHT22;47004;51.366;12.348;2023-03-07T07:35:11;3.30;99.90
18191;DHT22;47004;51.366;12.348;2023-03-07T07:37:14;3.30;99.90
18191;DHT22;47004;51.366;12.348;2023-03-07T07:39:16;3.30;99.90
18191;DHT22;47004;51.366;12.348;2023-03-07T07:41:18;3.30;99.90
18191;DHT22;47004;51.366;12.348;2023-03-07T07:43:20;3.40;99.90
18191;DHT22;47004;51.366;12.348;2023-03-07T07:45:23;3.40;99.90
18191;DHT22;47004;51.366;12.348;2023-03-07T07:47:25;3.40;99.90
18191;DHT22;47004;51.366;12.348;2023-03-07T07:49:27;3.50;99.90
18191;DHT22;47004;51.366;12.348;2023-03-07T07:51:29;3.50;99.90
18191;DHT22;47004;51.366;12.348;2023-03-07T07:53:32;3.60;99.90
18191;DHT22;47004;51.366;12.348;2023-03-07T07:55:34;3.60;99.90
18191;DHT22;47004;51.366;12.348;2023-03-07T07:57:36;3.60;99.90
18191;DHT22;47004;51.366;12.348;2023-03-07T07:59:38;3.70;99.90
18191;DHT22;47004;51.366;12.348;2023-03-07T08:01:40;3.70;99.90
18191;DHT22;47004;51.366;12.348;2023-03-07T08:03:43;3.80;99.90
18191;DHT22;47004;51.366;12.348;2023-03-07T08:05:45;3.90;99.90
18191;DHT22;47004;51.366;12.348;2023-03-07T08:07:48;3.90;99.90
18191;DHT22;47004;51.366;12.348;2023-03-07T08:09:52;3.80;99.90
18191;DHT22;47004;51.366;12.348;2023-03-07T08:11:54;3.90;99.90
18191;DHT22;47004;51.366;12.348;2023-03-07T08:13:56;3.90;99.90
18191;DHT22;47004;51.366;12.348;2023-03-07T08:15:58;3.90;99.90
18191;DHT22;47004;51.366;12.348;2023-03-07T08:18:00;4.00;99.90
18191;DHT22;47004;51.366;12.348;2023-03-07T08:20:02;4.00;99.90
18191;DHT22;47004;51.366;12.348;2023-03-07T08:22:08;4.00;99.90
18191;DHT22;47004;51.366;12.348;2023-03-07T08:24:10;4.10;99.90
18191;DHT22;47004;51.366;12.348;2023-03-07T08:26:14;4.10;99.90
18191;DHT22;47004;51.366;12.348;2023-03-07T08:28:17;4.10;99.90
18191;DHT22;47004;51.366;12.348;2023-03-07T08:30:19;4.20;99.90
18191;DHT22;47004;51.366;12.348;2023-03-07T08:32:21;4.20;99.90
18191;DHT22;47004;51.366;12.348;2023-03-07T08:34:23;4.30;99.90
18191;DHT22;47004;51.366;12.348;2023-03-07T08:36:25;4.30;99.90
18191;DHT22;47004;51.366;12.348;2023-03-07T08:38:27;4.30;99.90
18191;DHT22;47004;51.366;12.348;2023-03-07T08:40:30;4.30;99.90
18191;DHT22;47004;51.366;12.348;2023-03-07T08:42:33;4.40;99.90
18191;DHT22;47004;51.366;12.348;2023-03-07T08:44:35;4.40;99.90
18191;DHT22;47004;51.366;12.348;2023-03-07T08:46:37;4.40;99.90
18191;DHT22;47004;51.366;12.348;2023-03-07T08:48:39;4.40;99.90
18191;DHT22;47004;51.366;12.348;2023-03-07T08:50:41;4.50;99.90
18191;DHT22;47004;51.366;12.348;2023-03-07T08:52:43;4.60;99.90
18191;DHT22;47004;51.366;12.348;2023-03-07T08:54:44;4.50;99.90
18191;DHT22;47004;51.366;12.348;2023-03-07T08:56:46;4.60;99.90
18191;DHT22;47004;51.366;12.348;2023-03-07T08:58:52;4.60;99.90
18191;DHT22;47004;51.366;12.348;2023-03-07T09:00:54;4.70;99.90
18191;DHT22;47004;51.366;12.348;2023-03-07T09:02:59;4.70;99.90
18191;DHT22;47004;51.366;12.348;2023-03-07T09:05:02;4.80;99.90
18191;DHT22;47004;51.366;12.348;2023-03-07T09:07:04;4.80;99.90
18191;DHT22;47004;51.366;12.348;2023-03-07T09:09:06;4.80;99.90
18191;DHT22;47004;51.366;12.348;2023-03-07T09:11:08;4.80;99.90
18191;DHT22;47004;51.366;12.348;2023-03-07T09:13:10;4.90;99.90
18191;DHT22;47004;51.366;12.348;2023-03-07T09:15:15;4.90;99.90
18191;DHT22;47004;51.366;12.348;2023-03-07T09:17:16;4.90;99.90
18191;DHT22;47004;51.366;12.348;2023-03-07T09:19:18;5.00;99.90
18191;DHT22;47004;51.366;12.348;2023-03-07T09:21:20;5.00;99.90
18191;DHT22;47004;51.366;12.348;2023-03-07T09:23:23;5.10;99.90
18191;DHT22;47004;51.366;12.348;2023-03-07T09:25:25;5.40;99.90
18191;DHT22;47004;51.366;12.348;2023-03-07T09:27:27;5.20;99.90
18191;DHT22;47004;51.366;12.348;2023-03-07T09:29:29;5.10;99.90
18191;DHT22;47004;51.366;12.348;2023-03-07T09:31:33;5.20;99.90
18191;DHT22;47004;51.366;12.348;2023-03-07T09:33:35;5.30;99.90
18191;DHT22;47004;51.366;12.348;2023-03-07T09:35:37;5.40;99.90
18191;DHT22;47004;51.366;12.348;2023-03-07T09:37:39;5.40;99.90
18191;DHT22;47004;51.366;12.348;2023-03-07T09:39:41;5.50;99.90
18191;DHT22;47004;51.366;12.348;2023-03-07T09:42:03;5.50;99.90
18191;DHT22;47004;51.366;12.348;2023-03-07T09:44:17;5.60;99.90
18191;DHT22;47004;51.366;12.348;2023-03-07T09:46:30;5.60;99.90
18191;DHT22;47004;51.366;12.348;2023-03-07T09:49:02;5.50;99.90
18191;DHT22;47004;51.366;12.348;2023-03-07T09:51:14;5.50;99.90
18191;DHT22;47004;51.366;12.348;2023-03-07T09:53:28;5.50;99.90
18191;DHT22;47004;51.366;12.348;2023-03-07T09:55:36;5.50;99.90
18191;DHT22;47004;51.366;12.348;2023-03-07T09:57:43;5.50;99.90
18191;DHT22;47004;51.366;12.348;2023-03-07T09:59:49;5.50;99.90
18191;DHT22;47004;51.366;12.348;2023-03-07T10:02:03;5.50;99.90
18191;DHT22;47004;51.366;12.348;2023-03-07T10:04:13;5.50;99.90
18191;DHT22;47004;51.366;12.348;2023-03-07T10:06:21;5.50;99.90
18191;DHT22;47004;51.366;12.348;2023-03-07T10:08:28;5.50;99.90
18191;DHT22;47004;51.366;12.348;2023-03-07T10:10:35;5.40;99.90
18191;DHT22;47004;51.366;12.348;2023-03-07T10:12:56;5.40;99.90
18191;DHT22;47004;51.366;12.348;2023-03-07T10:15:17;5.30;99.90
18191;DHT22;47004;51.366;12.348;2023-03-07T10:17:26;5.30;99.90
18191;DHT22;47004;51.366;12.348;2023-03-07T10:19:42;5.30;99.90
18191;DHT22;47004;51.366;12.348;2023-03-07T10:21:50;5.30;99.90
18191;DHT22;47004;51.366;12.348;2023-03-07T10:24:30;5.30;99.90
18191;DHT22;47004;51.366;12.348;2023-03-07T10:26:34;5.40;99.90
18191;DHT22;47004;51.366;12.348;2023-03-07T10:28:39;5.40;99.90
18191;DHT22;47004;51.366;12.348;2023-03-07T10:30:41;5.50;99.90
18191;DHT22;47004;51.366;12.348;2023-03-07T10:32:45;5.50;99.90
18191;DHT22;47004;51.366;12.348;2023-03-07T10:34:53;5.50;99.90
18191;DHT22;47004;51.366;12.348;2023-03-07T10:36:59;5.50;99.90
18191;DHT22;47004;51.366;12.348;2023-03-07T10:39:09;5.50;99.90
18191;DHT22;47004;51.366;12.348;2023-03-07T10:41:20;5.50;99.90
18191;DHT22;47004;51.366;12.348;2023-03-07T10:43:24;5.60;99.90
18191;DHT22;47004;51.366;12.348;2023-03-07T10:45:29;5.50;99.90
18191;DHT22;47004;51.366;12.348;2023-03-07T10:47:31;5.50;99.90
18191;DHT22;47004;51.366;12.348;2023-03-07T10:49:38;5.50;99.90
18191;DHT22;47004;51.366;12.348;2023-03-07T10:51:53;5.50;99.90
18191;DHT22;47004;51.366;12.348;2023-03-07T10:53:56;5.50;99.90
18191;DHT22;47004;51.366;12.348;2023-03-07T10:56:09;5.50;99.90
18191;DHT22;47004;51.366;12.348;2023-03-07T10:58:20;5.50;99.90
18191;DHT22;47004;51.366;12.348;2023-03-07T11:00:23;5.50;99.90
18191;DHT22;47004;51.366;12.348;2023-03-07T11:02:34;5.50;99.90
18191;DHT22;47004;51.366;12.348;2023-03-07T11:04:43;5.40;99.90
18191;DHT22;47004;51.366;12.348;2023-03-07T11:06:53;5.40;99.90
18191;DHT22;47004;51.366;12.348;2023-03-07T11:08:55;5.50;99.90
18191;DHT22;47004;51.366;12.348;2023-03-07T11:10:58;5.50;99.90
18191;DHT22;47004;51.366;12.348;2023-03-07T11:13:06;5.50;99.90
18191;DHT22;47004;51.366;12.348;2023-03-07T11:15:18;5.50;99.90
18191;DHT22;47004;51.366;12.348;2023-03-07T11:17:22;5.50;99.90
18191;DHT22;47004;51.366;12.348;2023-03-07T11:19:35;5.50;99.90
18191;DHT22;47004;51.366;12.348;2023-03-07T11:21:38;5.70;99.90
18191;DHT22;47004;51.366;12.348;2023-03-07T11:23:41;5.60;99.90
18191;DHT22;47004;51.366;12.348;2023-03-07T11:26:14;5.80;99.90
18191;DHT22;47004;51.366;12.348;2023-03-07T11:28:26;5.90;99.90
18191;DHT22;47004;51.366;12.348;2023-03-07T11:30:36;6.00;99.90
18191;DHT22;47004;51.366;12.348;2023-03-07T11:32:50;6.10;99.90
18191;DHT22;47004;51.366;12.348;2023-03-07T11:34:57;6.10;99.90
18191;DHT22;47004;51.366;12.348;2023-03-07T11:37:14;6.20;99.90
18191;DHT22;47004;51.366;12.348;2023-03-07T11:39:27;6.20;99.90
18191;DHT22;47004;51.366;12.348;2023-03-07T11:41:35;6.20;99.90
18191;DHT22;47004;51.366;12.348;2023-03-07T11:43:45;6.20;99.90
18191;DHT22;47004;51.366;12.348;2023-03-07T11:45:54;6.30;99.90
18191;DHT22;47004;51.366;12.348;2023-03-07T11:48:04;6.30;99.90
18191;DHT22;47004;51.366;12.348;2023-03-07T11:50:18;6.30;99.90
18191;DHT22;47004;51.366;12.348;2023-03-07T11:52:40;6.40;99.90
18191;DHT22;47004;51.366;12.348;2023-03-07T11:54:52;6.40;99.90
18191;DHT22;47004;51.366;12.348;2023-03-07T11:57:03;6.40;99.90
18191;DHT22;47004;51.366;12.348;2023-03-07T11:59:37;6.40;99.90
18191;DHT22;47004;51.366;12.348;2023-03-07T12:01:50;6.50;99.90
18191;DHT22;47004;51.366;12.348;2023-03-07T12:04:21;6.50;99.90
18191;DHT22;47004;51.366;12.348;2023-03-07T12:06:34;6.50;99.90
18191;DHT22;47004;51.366;12.348;2023-03-07T12:09:02;6.60;99.90
18191;DHT22;47004;51.366;12.348;2023-03-07T12:11:21;6.60;99.90
18191;DHT22;47004;51.366;12.348;2023-03-07T12:13:35;6.60;99.90
18191;DHT22;47004;51.366;12.348;2023-03-07T12:15:45;6.70;99.90
18191;DHT22;47004;51.366;12.348;2023-03-07T12:17:54;6.60;99.90
18191;DHT22;47004;51.366;12.348;2023-03-07T12:20:24;6.60;99.90
18191;DHT22;47004;51.366;12.348;2023-03-07T12:22:36;6.60;99.90
18191;DHT22;47004;51.366;12.348;2023-03-07T12:24:45;6.60;99.90
18191;DHT22;47004;51.366;12.348;2023-03-07T12:26:56;6.60;99.90
18191;DHT22;47004;51.366;12.348;2023-03-07T12:29:02;6.60;99.90
18191;DHT22;47004;51.366;12.348;2023-03-07T12:31:09;6.60;99.90
18191;DHT22;47004;51.366;12.348;2023-03-07T12:33:20;6.60;99.90
18191;DHT22;47004;51.366;12.348;2023-03-07T12:35:26;6.70;99.90
18191;DHT22;47004;51.366;12.348;2023-03-07T12:37:36;6.70;99.90
18191;DHT22;47004;51.366;12.348;2023-03-07T12:39:45;6.70;99.90
18191;DHT22;47004;51.366;12.348;2023-03-07T12:41:58;6.70;99.90
18191;DHT22;47004;51.366;12.348;2023-03-07T12:44:05;6.70;99.90
18191;DHT22;47004;51.366;12.348;2023-03-07T12:46:14;6.70;99.90
18191;DHT22;47004;51.366;12.348;2023-03-07T12:48:21;6.70;99.90
18191;DHT22;47004;51.366;12.348;2023-03-07T12:50:28;6.70;99.90
18191;DHT22;47004;51.366;12.348;2023-03-07T12:52:37;6.70;99.90
18191;DHT22;47004;51.366;12.348;2023-03-07T12:54:43;6.80;99.90
18191;DHT22;47004;51.366;12.348;2023-03-07T12:56:53;6.70;99.90
18191;DHT22;47004;51.366;12.348;2023-03-07T12:58:59;6.70;99.90
18191;DHT22;47004;51.366;12.348;2023-03-07T13:01:11;6.70;99.90
18191;DHT22;47004;51.366;12.348;2023-03-07T13:03:20;6.70;99.90
18191;DHT22;47004;51.366;12.348;2023-03-07T13:05:24;6.70;99.90
18191;DHT22;47004;51.366;12.348;2023-03-07T13:07:28;6.70;99.90